CZ-0057 weather

Vodňany Airstrip
South Bohemian Region, Czechia

Public forecast

Using degrees Celsius for public forecast. Weather courtesy of forecast.io.

METAR (pilot weather report)

Closest report is Plzeň-Líně Airport, 48.1 nm (89.0 km) NW. Retrieved 2019/08/24 23:00 UTC (34 minutes ago):

LKLN 242300Z AUTO 04004KT 360V080 CAVOK 20/18 Q1020

TAF (pilot weather forecast)

Closest forecast is Linz Hörsching Airport, 53.7 nm (99.5 km) S. Retrieved 2019/08/24 18:21 UTC (5 hours ago):

TAF TAF LOWL 241715Z 2418/2518 09009KT 9999 FEW050CB BKN300 TX28/2514Z TN17/2504Z BECMG 2418/2420 VRB02KT CAVOK PROB30 TEMPO 2515/2518 9999 SHRA FEW050CB SCT300